createdAt,value
2018-05-01T00:02:00.809Z,98.20
2018-05-01T00:04:29.057Z,98.60
2018-05-01T00:06:56.518Z,97.80
2018-05-01T00:09:23.955Z,98.60
2018-05-01T00:11:51.517Z,98.80
2018-05-01T00:14:18.977Z,99.20
2018-05-01T00:16:46.850Z,99.00
2018-05-01T00:19:14.374Z,99.30
2018-05-01T00:21:41.902Z,98.40
2018-05-01T00:24:09.352Z,98.90
2018-05-01T00:26:36.801Z,99.00
2018-05-01T00:29:04.280Z,98.90
2018-05-01T00:31:31.722Z,99.40
2018-05-01T00:33:59.151Z,99.70
2018-05-01T00:36:26.580Z,99.70
2018-05-01T00:38:54.101Z,99.50
2018-05-01T00:41:22.403Z,99.50
2018-05-01T00:43:49.930Z,99.50
2018-05-01T00:46:17.400Z,98.80
2018-05-01T00:48:45.609Z,99.00
2018-05-01T00:51:13.141Z,98.90
2018-05-01T00:53:41.396Z,99.00
2018-05-01T00:56:08.850Z,98.60
2018-05-01T00:58:36.401Z,98.90
2018-05-01T01:01:03.847Z,98.90
2018-05-01T01:03:31.418Z,98.90
2018-05-01T01:05:58.969Z,99.90
2018-05-01T01:08:26.404Z,99.80
2018-05-01T01:10:53.872Z,99.90
2018-05-01T01:13:22.556Z,99.60
2018-05-01T01:15:49.993Z,99.60
2018-05-01T01:18:17.518Z,99.60
2018-05-01T01:20:45.784Z,99.40
2018-05-01T01:23:13.302Z,99.40
2018-05-01T01:25:40.757Z,99.80
2018-05-01T01:28:08.221Z,99.80
2018-05-01T01:30:35.697Z,99.30
2018-05-01T01:33:03.225Z,99.80
2018-05-01T01:35:30.180Z,99.90
2018-05-01T01:37:57.227Z,99.90
2018-05-01T01:40:24.345Z,99.90
2018-05-01T01:42:51.385Z,99.90
2018-05-01T01:45:19.086Z,99.90
2018-05-01T01:47:46.041Z,99.90
2018-05-01T01:50:12.984Z,99.70
2018-05-01T01:52:39.936Z,99.80
2018-05-01T01:55:06.965Z,99.90
2018-05-01T01:57:33.973Z,99.90
2018-05-01T02:00:01.790Z,99.90
2018-05-01T02:02:28.737Z,99.90
2018-05-01T02:04:55.685Z,99.90
2018-05-01T02:07:23.541Z,99.90
2018-05-01T02:09:50.493Z,99.90
2018-05-01T02:12:17.465Z,99.90
2018-05-01T02:14:44.418Z,99.90
2018-05-01T02:17:11.442Z,99.60
2018-05-01T02:19:38.500Z,99.60
2018-05-01T02:22:05.464Z,99.90
2018-05-01T02:24:32.408Z,99.90
2018-05-01T02:26:59.494Z,99.50
2018-05-01T02:29:26.442Z,99.40
2018-05-01T02:31:53.397Z,99.30
2018-05-01T02:34:20.473Z,99.50
2018-05-01T02:36:47.537Z,99.80
2018-05-01T02:39:14.607Z,99.20
2018-05-01T02:41:41.617Z,99.70
2018-05-01T02:44:08.698Z,99.70
2018-05-01T02:46:35.672Z,99.90
2018-05-01T02:49:02.721Z,99.90
2018-05-01T02:51:29.745Z,99.90
2018-05-01T02:53:57.510Z,99.50
2018-05-01T02:56:25.343Z,99.10
2018-05-01T02:58:52.294Z,99.10
2018-05-01T03:01:19.328Z,99.60
2018-05-01T03:03:46.411Z,99.80
2018-05-01T03:06:13.351Z,99.40
2018-05-01T03:08:40.373Z,99.90
2018-05-01T03:11:07.312Z,99.60
2018-05-01T03:13:34.314Z,99.20
2018-05-01T03:16:02.054Z,99.30
2018-05-01T03:18:29.118Z,99.30
2018-05-01T03:20:56.824Z,99.20
2018-05-01T03:23:23.788Z,99.10
2018-05-01T03:25:50.809Z,99.30
2018-05-01T03:28:17.890Z,99.90
2018-05-01T03:30:44.942Z,99.70
2018-05-01T03:33:11.994Z,99.40
2018-05-01T03:35:39.089Z,99.30
2018-05-01T03:38:06.100Z,99.50
2018-05-01T03:40:33.094Z,99.50
2018-05-01T03:43:00.152Z,99.70
2018-05-01T03:45:27.202Z,99.40
2018-05-01T03:47:54.249Z,99.80
2018-05-01T03:50:21.248Z,99.70
2018-05-01T03:52:49.068Z,99.90
2018-05-01T03:55:16.065Z,99.90
2018-05-01T03:57:43.793Z,99.90
2018-05-01T04:00:10.779Z,99.90
2018-05-01T04:02:38.510Z,99.90
2018-05-01T04:05:07.060Z,99.40
2018-05-01T04:07:34.140Z,99.40
2018-05-01T04:10:01.140Z,98.90
2018-05-01T04:12:28.813Z,99.30
2018-05-01T04:14:55.893Z,99.20
2018-05-01T04:17:23.829Z,99.30
2018-05-01T04:19:50.866Z,99.10
2018-05-01T04:22:17.807Z,99.90
2018-05-01T04:24:44.798Z,99.90
2018-05-01T04:27:11.738Z,99.50
2018-05-01T04:29:38.700Z,99.40
2018-05-01T04:32:05.645Z,99.00
2018-05-01T04:34:32.754Z,99.90
2018-05-01T04:36:59.776Z,99.90
2018-05-01T04:39:26.795Z,99.60
2018-05-01T04:41:53.748Z,99.20
2018-05-01T04:44:21.453Z,99.30
2018-05-01T04:46:48.417Z,99.30
2018-05-01T04:49:15.430Z,99.20
2018-05-01T04:51:42.482Z,99.70
2018-05-01T04:54:09.331Z,99.60
2018-05-01T04:56:36.285Z,99.30
2018-05-01T04:59:03.235Z,98.90
2018-05-01T05:01:30.196Z,99.10
2018-05-01T05:03:57.995Z,99.10
2018-05-01T05:06:25.077Z,99.10
2018-05-01T05:08:52.101Z,99.10
2018-05-01T05:11:19.060Z,99.10
2018-05-01T05:13:46.869Z,98.20
2018-05-01T05:16:13.910Z,98.20
2018-05-01T05:18:40.971Z,98.80
2018-05-01T05:21:07.987Z,98.50
2018-05-01T05:23:35.028Z,98.70
2018-05-01T05:26:01.980Z,98.60
2018-05-01T05:28:28.960Z,98.80
2018-05-01T05:30:55.898Z,98.90
2018-05-01T05:33:23.787Z,98.80
2018-05-01T05:35:50.718Z,99.00
2018-05-01T05:38:17.797Z,99.40
2018-05-01T05:40:44.813Z,98.60
2018-05-01T05:43:11.757Z,98.70
2018-05-01T05:45:38.726Z,98.90
2018-05-01T05:48:05.711Z,98.60
2018-05-01T05:50:32.661Z,98.40
2018-05-01T05:52:59.610Z,98.30
2018-05-01T05:55:26.555Z,98.40
2018-05-01T05:57:53.517Z,98.50
2018-05-01T06:00:20.467Z,98.10
2018-05-01T06:02:47.404Z,97.70
2018-05-01T06:05:14.374Z,98.40
2018-05-01T06:07:41.380Z,98.80
2018-05-01T06:10:08.263Z,98.30
2018-05-01T06:12:35.208Z,98.40
2018-05-01T06:15:02.268Z,97.80
2018-05-01T06:17:29.214Z,97.40
2018-05-01T06:19:56.158Z,98.20
2018-05-01T06:22:23.933Z,98.10
2018-05-01T06:24:51.350Z,98.30
2018-05-01T06:27:18.340Z,97.20
2018-05-01T06:29:45.344Z,97.20
2018-05-01T06:32:12.304Z,96.90
2018-05-01T06:34:39.264Z,96.40
2018-05-01T06:37:06.201Z,96.40
2018-05-01T06:39:33.156Z,96.30
2018-05-01T06:42:00.139Z,96.20
2018-05-01T06:44:27.098Z,96.30
2018-05-01T06:46:54.095Z,95.30
2018-05-01T06:49:21.097Z,94.60
2018-05-01T06:51:48.185Z,94.60
2018-05-01T06:54:16.962Z,94.10
2018-05-01T06:56:43.981Z,93.90
2018-05-01T06:59:10.926Z,93.80
2018-05-01T07:01:37.896Z,94.20
2018-05-01T07:04:04.962Z,94.20
2018-05-01T07:06:31.955Z,94.00
2018-05-01T07:08:58.924Z,94.00
2018-05-01T07:11:25.882Z,93.80
2018-05-01T07:13:52.836Z,93.70
2018-05-01T07:16:29.346Z,95.10
2018-05-01T07:18:56.349Z,94.10
2018-05-01T07:21:24.105Z,93.80
2018-05-01T07:23:51.055Z,95.00
2018-05-01T07:26:18.009Z,95.00
2018-05-01T07:28:45.073Z,93.40
2018-05-01T07:31:12.061Z,93.80
2018-05-01T07:33:39.060Z,93.80
2018-05-01T07:36:05.992Z,93.50
2018-05-01T07:38:33.055Z,94.00
2018-05-01T07:41:00.138Z,93.90
2018-05-01T07:43:27.862Z,91.90
2018-05-01T07:45:54.882Z,91.90
2018-05-01T07:48:21.897Z,91.30
2018-05-01T07:50:48.916Z,90.50
2018-05-01T07:53:16.060Z,89.60
2018-05-01T07:55:43.062Z,90.00
2018-05-01T07:58:10.129Z,90.00
2018-05-01T08:00:37.098Z,90.50
2018-05-01T08:03:04.179Z,88.80
2018-05-01T08:05:31.957Z,88.30
2018-05-01T08:07:59.062Z,88.30
2018-05-01T08:10:26.081Z,86.00
2018-05-01T08:12:53.190Z,87.50
2018-05-01T08:15:20.207Z,85.40
2018-05-01T08:17:47.233Z,82.40
2018-05-01T08:20:15.202Z,79.80
2018-05-01T08:22:42.152Z,80.70
2018-05-01T08:25:09.105Z,82.80
2018-05-01T08:27:36.129Z,82.30
2018-05-01T08:30:03.833Z,79.00
2018-05-01T08:32:30.789Z,78.50
2018-05-01T08:34:57.732Z,77.20
2018-05-01T08:37:24.680Z,73.20
2018-05-01T08:39:51.637Z,71.30
2018-05-01T08:42:18.571Z,71.30
2018-05-01T08:44:45.520Z,74.50
2018-05-01T08:47:12.455Z,70.50
2018-05-01T08:49:39.401Z,70.10
2018-05-01T08:52:06.347Z,70.70
2018-05-01T08:54:33.309Z,67.90
2018-05-01T08:57:00.254Z,65.90
2018-05-01T08:59:27.199Z,64.40
2018-05-01T09:01:54.139Z,63.20
2018-05-01T09:04:21.126Z,62.10
2018-05-01T09:06:48.069Z,65.00
2018-05-01T09:09:15.024Z,61.30
2018-05-01T09:11:42.730Z,61.40
2018-05-01T09:14:09.691Z,61.20
2018-05-01T09:16:36.629Z,58.80
2018-05-01T09:19:03.579Z,56.70
2018-05-01T09:21:30.526Z,50.60
2018-05-01T09:23:57.578Z,50.90
2018-05-01T09:26:24.507Z,54.30
2018-05-01T09:28:51.457Z,53.70
2018-05-01T09:31:19.595Z,51.30
2018-05-01T09:33:47.309Z,52.30
2018-05-01T09:36:14.244Z,50.50
2018-05-01T09:38:42.422Z,49.30
2018-05-01T09:41:09.362Z,49.40
2018-05-01T09:43:36.337Z,48.30
2018-05-01T09:46:03.371Z,48.50
2018-05-01T09:48:30.316Z,48.80
2018-05-01T09:50:57.279Z,49.40
2018-05-01T09:53:25.661Z,51.70
2018-05-01T09:55:53.304Z,52.40
2018-05-01T09:58:20.799Z,50.20
2018-05-01T10:00:49.146Z,51.00
2018-05-01T10:05:46.606Z,50.00
2018-05-01T10:10:44.301Z,49.80
2018-05-01T10:13:11.737Z,48.50
2018-05-01T10:15:39.992Z,47.60
2018-05-01T10:18:07.893Z,46.60
2018-05-01T10:20:35.466Z,47.00
2018-05-01T10:23:03.048Z,48.80
2018-05-01T10:25:31.282Z,47.10
2018-05-01T10:27:59.568Z,46.90
2018-05-01T10:30:27.987Z,48.70
2018-05-01T10:32:55.763Z,47.90
2018-05-01T10:35:24.885Z,49.60
2018-05-01T10:40:22.371Z,48.90
2018-05-01T10:45:20.123Z,46.80
2018-05-01T10:47:48.050Z,46.90
2018-05-01T10:50:15.585Z,48.30
2018-05-01T10:52:43.090Z,46.20
2018-05-01T10:55:11.319Z,46.90
2018-05-01T10:57:39.679Z,46.60
2018-05-01T11:00:07.286Z,47.10
2018-05-01T11:02:36.356Z,47.30
2018-05-01T11:05:03.950Z,47.00
2018-05-01T11:07:31.439Z,47.40
2018-05-01T11:09:59.632Z,47.30
2018-05-01T11:12:27.511Z,46.50
2018-05-01T11:14:55.031Z,47.30
2018-05-01T11:17:24.629Z,48.10
2018-05-01T11:19:52.555Z,45.40
2018-05-01T11:22:20.014Z,46.00
2018-05-01T11:24:47.518Z,46.90
2018-05-01T11:27:15.858Z,45.70
2018-05-01T11:29:43.373Z,45.70
2018-05-01T11:32:11.577Z,45.50
2018-05-01T11:34:39.047Z,45.50
2018-05-01T11:37:06.508Z,45.40
2018-05-01T11:39:33.962Z,43.90
2018-05-01T11:42:01.429Z,44.20
2018-05-01T11:44:28.884Z,45.80
2018-05-01T11:46:56.315Z,46.50
2018-05-01T11:49:23.744Z,43.80
2018-05-01T11:51:51.959Z,44.80
2018-05-01T11:54:19.428Z,44.80
2018-05-01T11:56:47.708Z,45.30
2018-05-01T11:59:15.324Z,41.00
2018-05-01T12:01:43.673Z,42.20
2018-05-01T12:04:12.044Z,42.20
2018-05-01T12:06:39.896Z,39.40
2018-05-01T12:09:07.329Z,40.70
2018-05-01T12:11:35.633Z,40.00
2018-05-01T12:14:02.993Z,38.50
2018-05-01T12:16:30.434Z,38.50
2018-05-01T12:18:59.000Z,38.60
2018-05-01T12:21:26.437Z,39.10
2018-05-01T12:23:54.651Z,40.40
2018-05-01T12:26:22.088Z,40.30
2018-05-01T12:31:18.759Z,37.50
2018-05-01T12:33:46.180Z,37.60
2018-05-01T12:36:14.384Z,33.60
2018-05-01T12:38:42.951Z,33.40
2018-05-01T12:41:11.543Z,36.60
2018-05-01T12:43:39.726Z,36.60
2018-05-01T12:46:08.292Z,33.40
2018-05-01T12:48:35.818Z,35.00
2018-05-01T12:51:03.159Z,34.90
2018-05-01T12:53:31.356Z,36.30
2018-05-01T12:55:59.188Z,35.30
2018-05-01T12:58:26.655Z,33.80
2018-05-01T13:00:54.086Z,34.30
2018-05-01T13:03:21.507Z,32.20
2018-05-01T13:05:49.740Z,32.50
2018-05-01T13:08:17.170Z,32.40
2018-05-01T13:10:44.600Z,32.50
2018-05-01T13:13:12.829Z,31.40
2018-05-01T13:15:40.260Z,31.40
2018-05-01T13:18:07.687Z,32.10
2018-05-01T13:20:35.985Z,30.50
2018-05-01T13:23:03.343Z,30.20
2018-05-01T13:25:31.545Z,29.30
2018-05-01T13:28:00.140Z,30.00
2018-05-01T13:30:27.569Z,30.00
2018-05-01T13:32:55.662Z,29.90
2018-05-01T13:35:23.496Z,28.80
2018-05-01T13:40:20.588Z,29.40
2018-05-01T13:42:48.044Z,27.30
2018-05-01T13:45:15.544Z,27.90
2018-05-01T13:47:42.976Z,28.80
2018-05-01T13:50:10.513Z,27.40
2018-05-01T13:52:37.931Z,29.20
2018-05-01T13:55:06.132Z,28.80
2018-05-01T13:57:33.616Z,28.80
2018-05-01T14:00:01.052Z,26.90
2018-05-01T14:02:28.478Z,27.80
2018-05-01T14:04:56.696Z,26.70
2018-05-01T14:07:24.196Z,25.90
2018-05-01T14:09:51.616Z,26.10
2018-05-01T14:12:19.050Z,25.50
2018-05-01T14:14:47.260Z,26.20
2018-05-01T14:17:14.698Z,26.20
2018-05-01T14:19:42.168Z,25.30
2018-05-01T14:22:09.604Z,25.90
2018-05-01T14:24:37.032Z,25.50
2018-05-01T14:27:05.242Z,26.20
2018-05-01T14:29:32.672Z,26.20
2018-05-01T14:32:00.866Z,27.00
2018-05-01T14:34:28.300Z,27.00
2018-05-01T14:36:56.518Z,25.00
2018-05-01T14:39:23.959Z,25.00
2018-05-01T14:41:51.399Z,26.10
2018-05-01T14:44:19.264Z,26.10
2018-05-01T14:49:16.994Z,26.20
2018-05-01T14:51:44.433Z,26.50
2018-05-01T14:54:11.863Z,27.30
2018-05-01T14:59:08.917Z,28.80
2018-05-01T15:01:37.221Z,27.90
2018-05-01T15:04:04.571Z,28.60
2018-05-01T15:06:32.060Z,29.80
2018-05-01T15:08:59.587Z,29.20
2018-05-01T15:11:26.946Z,31.30
2018-05-01T15:13:54.375Z,31.50
2018-05-01T15:16:21.896Z,31.40
2018-05-01T15:18:50.260Z,32.30
2018-05-01T15:21:18.869Z,32.30
2018-05-01T15:23:46.299Z,33.80
2018-05-01T15:26:13.784Z,32.10
2018-05-01T15:28:41.236Z,33.30
2018-05-01T15:31:08.714Z,32.70
2018-05-01T15:33:36.144Z,33.30
2018-05-01T15:36:03.555Z,32.30
2018-05-01T15:38:31.816Z,34.80
2018-05-01T15:40:59.620Z,33.60
2018-05-01T15:43:27.100Z,34.00
2018-05-01T15:45:54.568Z,34.70
2018-05-01T15:48:22.010Z,35.20
2018-05-01T15:50:49.485Z,34.20
2018-05-01T15:53:16.922Z,33.20
2018-05-01T15:55:44.359Z,34.10
2018-05-01T15:58:12.563Z,36.30
2018-05-01T16:00:40.444Z,34.30
2018-05-01T16:03:08.588Z,33.20
2018-05-01T16:05:37.585Z,32.80
2018-05-01T16:08:05.397Z,34.40
2018-05-01T16:10:33.630Z,35.30
2018-05-01T16:13:01.470Z,34.50
2018-05-01T16:15:29.304Z,34.70
2018-05-01T16:17:56.736Z,35.60
2018-05-01T16:20:25.857Z,35.50
2018-05-01T16:22:54.072Z,35.10
2018-05-01T16:25:21.895Z,35.10
2018-05-01T16:27:49.740Z,36.20
2018-05-01T16:30:17.169Z,36.00
2018-05-01T16:32:44.607Z,36.90
2018-05-01T16:35:12.447Z,35.30
2018-05-01T16:37:40.296Z,36.30
2018-05-01T16:40:08.488Z,35.40
2018-05-01T16:42:35.926Z,36.00
2018-05-01T16:45:03.352Z,35.00
2018-05-01T16:47:30.771Z,34.60
2018-05-01T16:49:58.977Z,34.10
2018-05-01T16:52:27.916Z,34.60
2018-05-01T16:54:55.361Z,33.10
2018-05-01T16:57:23.555Z,33.30
2018-05-01T16:59:50.994Z,35.10
2018-05-01T17:02:18.832Z,34.90
2018-05-01T17:04:46.264Z,34.20
2018-05-01T17:07:14.093Z,33.90
2018-05-01T17:09:41.938Z,35.30
2018-05-01T17:12:09.757Z,33.50
2018-05-01T17:14:38.327Z,34.50
2018-05-01T17:17:06.153Z,33.20
2018-05-01T17:19:33.613Z,32.80
2018-05-01T17:22:02.163Z,35.10
2018-05-01T17:24:29.605Z,33.50
2018-05-01T17:26:57.810Z,36.20
2018-05-01T17:29:26.684Z,34.80
2018-05-01T17:31:54.887Z,34.90
2018-05-01T17:34:22.793Z,34.70
2018-05-01T17:36:50.261Z,34.90
2018-05-01T17:39:18.475Z,35.40
2018-05-01T17:41:45.896Z,35.20
2018-05-01T17:44:13.328Z,35.60
2018-05-01T17:49:09.561Z,35.50
2018-05-01T17:51:36.997Z,36.00
2018-05-01T17:54:04.480Z,35.10
2018-05-01T17:56:31.920Z,36.90
2018-05-01T17:58:59.731Z,35.70
2018-05-01T18:01:27.265Z,35.80
2018-05-01T18:03:54.712Z,35.20
2018-05-01T18:06:22.141Z,34.90
2018-05-01T18:08:50.852Z,35.80
2018-05-01T18:11:18.316Z,36.20
2018-05-01T18:13:45.745Z,37.10
2018-05-01T18:16:13.231Z,37.50
2018-05-01T18:18:40.667Z,37.10
2018-05-01T18:21:08.096Z,36.90
2018-05-01T18:23:36.287Z,37.10
2018-05-01T18:26:03.711Z,37.00
2018-05-01T18:28:31.247Z,37.10
2018-05-01T18:30:58.671Z,36.60
2018-05-01T18:33:26.102Z,37.10
2018-05-01T18:35:54.317Z,37.20
2018-05-01T18:38:21.795Z,39.40
2018-05-01T18:40:49.240Z,38.20
2018-05-01T18:43:16.701Z,37.50
2018-05-01T18:45:44.164Z,37.20
2018-05-01T18:48:11.622Z,37.40
2018-05-01T18:50:40.395Z,37.80
2018-05-01T18:53:07.251Z,37.70
2018-05-01T18:55:34.722Z,38.10
2018-05-01T18:58:02.144Z,38.50
2018-05-01T19:00:29.649Z,38.50
2018-05-01T19:02:57.071Z,38.90
2018-05-01T19:05:24.523Z,39.00
2018-05-01T19:07:51.951Z,39.40
2018-05-01T19:10:20.249Z,40.40
2018-05-01T19:12:47.599Z,39.80
2018-05-01T19:17:45.320Z,42.80
2018-05-01T19:20:13.166Z,44.20
2018-05-01T19:25:15.803Z,45.90
2018-05-01T19:27:44.732Z,43.60
2018-05-01T19:30:12.568Z,43.40
2018-05-01T19:32:39.995Z,43.80
2018-05-01T19:35:07.440Z,45.20
2018-05-01T19:37:34.855Z,45.50
2018-05-01T19:40:03.064Z,46.70
2018-05-01T19:42:30.495Z,46.70
2018-05-01T19:44:58.714Z,46.90
2018-05-01T19:47:26.144Z,46.50
2018-05-01T19:49:53.692Z,47.00
2018-05-01T19:52:21.043Z,47.30
2018-05-01T19:54:48.480Z,47.80
2018-05-01T19:57:15.977Z,47.70
2018-05-01T19:59:43.405Z,48.20
2018-05-01T20:02:11.752Z,49.00
2018-05-01T20:04:39.178Z,49.00
2018-05-01T20:07:06.610Z,51.20
2018-05-01T20:09:34.832Z,50.50
2018-05-01T20:12:02.281Z,50.50
2018-05-01T20:14:29.706Z,51.10
2018-05-01T20:16:57.149Z,50.90
2018-05-01T20:19:26.269Z,53.20
2018-05-01T20:21:53.751Z,53.20
2018-05-01T20:24:21.264Z,53.50
2018-05-01T20:26:49.467Z,53.40
2018-05-01T20:29:16.892Z,53.30
2018-05-01T20:31:45.092Z,54.50
2018-05-01T20:34:12.519Z,54.50
2018-05-01T20:36:40.720Z,56.50
2018-05-01T20:39:08.152Z,56.50
2018-05-01T20:41:35.595Z,57.20
2018-05-01T20:44:03.017Z,56.30
2018-05-01T20:46:30.461Z,56.90
2018-05-01T20:48:57.907Z,56.50
2018-05-01T20:51:26.281Z,56.30
2018-05-01T20:53:53.713Z,56.40
2018-05-01T20:56:21.169Z,56.60
2018-05-01T20:58:48.613Z,56.50
2018-05-01T21:01:16.044Z,56.60
2018-05-01T21:03:43.487Z,56.90
2018-05-01T21:06:10.931Z,57.20
2018-05-01T21:08:38.359Z,57.30
2018-05-01T21:11:06.566Z,58.20
2018-05-01T21:13:34.015Z,58.10
2018-05-01T21:16:02.220Z,59.50
2018-05-01T21:18:29.651Z,59.50
2018-05-01T21:20:57.085Z,60.80
2018-05-01T21:23:26.202Z,62.20
2018-05-01T21:25:53.709Z,62.10
2018-05-01T21:28:21.140Z,62.40
2018-05-01T21:30:48.575Z,63.10
2018-05-01T21:33:16.003Z,63.70
2018-05-01T21:35:43.427Z,64.40
2018-05-01T21:38:10.859Z,62.30
2018-05-01T21:40:38.292Z,65.20
2018-05-01T21:43:06.506Z,65.30
2018-05-01T21:45:33.933Z,65.30
2018-05-01T21:48:02.123Z,65.90
2018-05-01T21:50:29.543Z,66.00
2018-05-01T21:52:57.735Z,66.30
2018-05-01T21:55:26.861Z,66.50
2018-05-01T21:57:54.309Z,66.50
2018-05-01T22:00:21.739Z,66.50
2018-05-01T22:02:49.939Z,66.70
2018-05-01T22:05:17.375Z,66.70
2018-05-01T22:07:45.591Z,67.20
2018-05-01T22:10:13.026Z,67.00
2018-05-01T22:12:40.468Z,67.50
2018-05-01T22:15:08.669Z,68.20
2018-05-01T22:17:36.871Z,67.90
2018-05-01T22:20:04.291Z,68.90
2018-05-01T22:22:31.740Z,69.90
2018-05-01T22:24:59.927Z,72.10
2018-05-01T22:27:27.370Z,72.00
2018-05-01T22:29:54.802Z,72.20
2018-05-01T22:32:22.240Z,71.60
2018-05-01T22:34:49.669Z,71.80
2018-05-01T22:37:17.106Z,72.10
2018-05-01T22:39:44.536Z,72.00
2018-05-01T22:42:12.756Z,71.00
2018-05-01T22:44:40.237Z,70.90
2018-05-01T22:47:08.392Z,70.50
2018-05-01T22:49:35.834Z,70.60
2018-05-01T22:52:03.260Z,71.50
2018-05-01T22:54:31.455Z,71.00
2018-05-01T22:56:58.908Z,70.90
2018-05-01T22:59:26.540Z,71.00
2018-05-01T23:01:53.979Z,70.90
2018-05-01T23:04:21.399Z,71.30
2018-05-01T23:06:48.841Z,70.80
2018-05-01T23:09:17.027Z,71.60
2018-05-01T23:11:44.463Z,71.50
2018-05-01T23:14:12.685Z,71.80
2018-05-01T23:16:40.119Z,71.80
2018-05-01T23:19:07.539Z,72.30
2018-05-01T23:21:35.065Z,72.00
2018-05-01T23:24:02.495Z,73.00
2018-05-01T23:26:29.973Z,73.30
2018-05-01T23:28:57.398Z,73.10
2018-05-01T23:31:25.395Z,73.50
2018-05-01T23:33:52.818Z,73.20
2018-05-01T23:36:21.015Z,73.30
2018-05-01T23:38:48.539Z,73.20
2018-05-01T23:41:15.959Z,73.20
2018-05-01T23:43:43.394Z,73.90
2018-05-01T23:46:10.816Z,73.00
2018-05-01T23:48:39.019Z,73.60
2018-05-01T23:51:06.447Z,73.60
2018-05-01T23:53:34.669Z,74.10
2018-05-01T23:56:02.094Z,73.90
2018-05-01T23:58:30.296Z,73.90
